42.1°F
Current conditions from King Hill
Updated every 5 minutes
 
  Wednesday April 23, 2014

Station Historical Data
Daily Summary for March 31, 2011 Units:  Metric    English   Both
« Previous Day
Next Day »
Daily Weekly Monthly Yearly Custom
  High: Low: Average:
Temperature: 9 °C -2.7 °C 2.9 °C
Dew Point: -2.1 °C -7.6 °C -4.8 °C
Humidity: 74% 35% 59%
Wind Speed: 12.9km/h 0km/h 3.5km/h
Wind Gust: 22.5km/h - -
Wind- - SSE
Pressure: 1014.4 hPa 1006.3 hPa -
Precipitation: 0 mm    
Historical Graphs
 
 
Tabular Data for March 31, 2011
Time Temperature Dew Point Pressure Wind Wind Speed Wind Gust Humidity Daily Rainfall
00:05 -1.5 °C -6.4 °C 1014.4 hPa Calm     69% 0 mm
00:10 -1.3 °C -6.3 °C 1014.4 hPa Calm     69% 0 mm
00:15 -1.2 °C -6.1 °C 1014.4 hPa Calm     69% 0 mm
00:20 -1.4 °C -6.6 °C 1014.4 hPa Calm     68% 0 mm
00:25 -2 °C -6.9 °C 1014.4 hPa Calm     69% 0 mm
00:30 -2.4 °C -7.2 °C 1014.4 hPa Calm     70% 0 mm
00:35 -2.6 °C -7.1 °C 1014.1 hPa Calm     71% 0 mm
00:40 -2.7 °C -7.2 °C 1014.1 hPa Calm     71% 0 mm
00:45 -2.6 °C -7.2 °C 1014.1 hPa Calm     71% 0 mm
00:50 -2.5 °C -7.4 °C 1014.1 hPa Calm     69% 0 mm
00:55 -2.4 °C -7.3 °C 1014.1 hPa Calm     69% 0 mm
01:00 -2.4 °C -7.6 °C 1014.1 hPa Calm     68% 0 mm
01:05 -2.3 °C -7.4 °C 1013.8 hPa Calm     68% 0 mm
01:10 -2.1 °C -7.1 °C 1013.8 hPa Calm     69% 0 mm
01:15 -2.1 °C -7 °C 1013.8 hPa Calm     69% 0 mm
01:20 -2.1 °C -7.2 °C 1013.8 hPa Calm     68% 0 mm
01:25 -2 °C -6.9 °C 1013.8 hPa Calm     69% 0 mm
01:30 -2 °C -6.7 °C 1013.8 hPa Calm     70% 0 mm
01:35 -2.1 °C -6.8 °C 1013.8 hPa Calm     70% 0 mm
01:40 -2.3 °C -6.8 °C 1013.8 hPa Calm     71% 0 mm
01:45 -2.2 °C -6.9 °C 1013.8 hPa Calm     70% 0 mm
01:50 -2.1 °C -7.1 °C 1013.8 hPa Calm     69% 0 mm
01:55 -2.1 °C -7.2 °C 1013.4 hPa Calm     68% 0 mm
02:00 -2.1 °C -6.8 °C 1013.8 hPa Calm     70% 0 mm
02:05 -2.1 °C -7.2 °C 1013.4 hPa Calm     68% 0 mm
02:10 -2.1 °C -7.2 °C 1013.4 hPa Calm     68% 0 mm
02:15 -2 °C -6.9 °C 1013.1 hPa Calm     69% 0 mm
02:20 -1.9 °C -7.1 °C 1013.1 hPa Calm   1.6 km/h 68% 0 mm
02:25 -1.9 °C -6.7 °C 1013.1 hPa Calm   1.6 km/h 70% 0 mm
02:30 -2 °C -6.9 °C 1013.1 hPa SE 1.6 km/h 4.8 km/h 69% 0 mm
02:35 -1.8 °C -6.5 °C 1012.8 hPa East 1.6 km/h 6.4 km/h 70% 0 mm
02:40 -1.3 °C -6.3 °C 1012.8 hPa ENE 3.2 km/h 6.4 km/h 69% 0 mm
02:45 -1 °C -6.2 °C 1012.8 hPa ENE 1.6 km/h 6.4 km/h 68% 0 mm
02:50 -0.8 °C -6.2 °C 1012.8 hPa Calm   4.8 km/h 67% 0 mm
02:55 -0.8 °C -6 °C 1012.8 hPa ENE 1.6 km/h 3.2 km/h 68% 0 mm
03:00 -0.9 °C -5.9 °C 1012.8 hPa Calm   3.2 km/h 69% 0 mm
03:05 -1.1 °C -5.8 °C 1012.8 hPa Calm   1.6 km/h 70% 0 mm
03:15 -1.4 °C -5.8 °C 1012.8 hPa Calm   1.6 km/h 72% 0 mm
03:20 -1.6 °C -6.1 °C 1012.8 hPa Calm   1.6 km/h 71% 0 mm
03:25 -1.7 °C -6.1 °C 1012.8 hPa ENE 1.6 km/h 3.2 km/h 72% 0 mm
03:30 -1.8 °C -6.2 °C 1012.8 hPa Calm   3.2 km/h 72% 0 mm
03:35 -1.9 °C -6.1 °C 1012.8 hPa Calm     73% 0 mm
03:40 -2.2 °C -6.4 °C 1012.4 hPa Calm     73% 0 mm
03:50 -2.2 °C -6.2 °C 1012.4 hPa ENE 1.6 km/h 4.8 km/h 74% 0 mm
03:55 -2.1 °C -6.3 °C 1012.4 hPa ENE 3.2 km/h 4.8 km/h 73% 0 mm
04:00 -1.8 °C -6.2 °C 1012.4 hPa Calm   4.8 km/h 72% 0 mm
04:05 -1.5 °C -6.1 °C 1012.4 hPa Calm   8 km/h 71% 0 mm
04:10 -1.4 °C -6.2 °C 1012.1 hPa Calm   8 km/h 70% 0 mm
04:15 -1.5 °C -6.3 °C 1012.1 hPa Calm   4.8 km/h 70% 0 mm
04:20 -1.7 °C -6.2 °C 1012.1 hPa Calm     71% 0 mm
04:25 -1.8 °C -6.3 °C 1012.1 hPa Calm     71% 0 mm
04:30 -1.8 °C -6.4 °C 1012.1 hPa Calm   1.6 km/h 71% 0 mm
04:35 -1.9 °C -6.5 °C 1012.1 hPa Calm   1.6 km/h 71% 0 mm
04:40 -1.9 °C -6.4 °C 1012.1 hPa Calm     71% 0 mm
04:45 -1.8 °C -6.3 °C 1012.4 hPa Calm     71% 0 mm
04:50 -1.7 °C -6.1 °C 1012.4 hPa Calm     72% 0 mm
04:55 -1.8 °C -6.2 °C 1012.1 hPa Calm     72% 0 mm
05:00 -1.7 °C -5.9 °C 1012.4 hPa Calm     73% 0 mm
05:05 -1.7 °C -6.1 °C 1012.1 hPa Calm     72% 0 mm
05:10 -1.7 °C -6.1 °C 1012.1 hPa Calm   1.6 km/h 72% 0 mm
05:15 -1.8 °C -6.2 °C 1012.1 hPa Calm   1.6 km/h 72% 0 mm
05:20 -1.9 °C -6.1 °C 1012.1 hPa Calm   1.6 km/h 73% 0 mm
05:25 -2.1 °C -6.2 °C 1012.1 hPa Calm   1.6 km/h 73% 0 mm
05:30 -2.1 °C -6.2 °C 1012.1 hPa Calm     73% 0 mm
05:35 -2 °C -6.4 °C 1012.1 hPa Calm     72% 0 mm
05:40 -1.8 °C -6.1 °C 1012.1 hPa Calm     73% 0 mm
05:45 -1.8 °C -6.2 °C 1012.1 hPa Calm     72% 0 mm
05:50 -1.8 °C -6.2 °C 1012.1 hPa Calm     72% 0 mm
05:55 -1.8 °C -6 °C 1012.1 hPa Calm     73% 0 mm
06:00 -1.7 °C -5.9 °C 1012.1 hPa Calm     73% 0 mm
06:05 -1.7 °C -6.1 °C 1011.7 hPa Calm   1.6 km/h 72% 0 mm
06:10 -1.5 °C -5.7 °C 1011.7 hPa ENE 1.6 km/h 3.2 km/h 73% 0 mm
06:15 -1.4 °C -5.8 °C 1011.7 hPa Calm   4.8 km/h 72% 0 mm
06:20 -1.4 °C -5.8 °C 1011.7 hPa Calm   4.8 km/h 72% 0 mm
06:25 -1.6 °C -6 °C 1011.7 hPa Calm     72% 0 mm
06:30 -1.7 °C -6.1 °C 1012.1 hPa Calm     72% 0 mm
06:35 -1.8 °C -6.2 °C 1012.1 hPa Calm     72% 0 mm
06:40 -1.8 °C -5.8 °C 1012.1 hPa Calm     74% 0 mm
06:45 -1.8 °C -6.1 °C 1012.1 hPa Calm     73% 0 mm
06:50 -1.8 °C -6.2 °C 1012.1 hPa Calm     72% 0 mm
06:55 -1.7 °C -6.1 °C 1012.1 hPa Calm     72% 0 mm
07:00 -1.6 °C -5.8 °C 1012.1 hPa Calm   3.2 km/h 73% 0 mm
07:05 -1.4 °C -5.8 °C 1012.1 hPa Calm   6.4 km/h 72% 0 mm
07:10 -1.2 °C -5.9 °C 1012.1 hPa ENE 1.6 km/h 6.4 km/h 70% 0 mm
07:15 -1 °C -5.8 °C 1012.1 hPa Calm   6.4 km/h 70% 0 mm
07:20 -0.9 °C -5.7 °C 1011.7 hPa Calm   3.2 km/h 70% 0 mm
07:25 -0.8 °C -5.6 °C 1011.7 hPa Calm   3.2 km/h 70% 0 mm
07:30 -0.8 °C -5.6 °C 1011.7 hPa ENE 1.6 km/h 3.2 km/h 70% 0 mm
07:35 -0.7 °C -5.4 °C 1011.7 hPa Calm   3.2 km/h 70% 0 mm
07:40 -0.5 °C -5.3 °C 1011.7 hPa Calm   3.2 km/h 70% 0 mm
07:45 -0.4 °C -5.4 °C 1011.7 hPa Calm   3.2 km/h 69% 0 mm
07:50 -0.3 °C -5.3 °C 1011.7 hPa Calm   1.6 km/h 69% 0 mm
07:55 -0.1 °C -4.7 °C 1011.7 hPa Calm   1.6 km/h 71% 0 mm
08:00 0 °C -4.8 °C 1011.7 hPa Calm   1.6 km/h 70% 0 mm
08:05 0.1 °C -4.8 °C 1011.7 hPa Calm     70% 0 mm
08:10 0.2 °C -4.8 °C 1011.7 hPa Calm   3.2 km/h 69% 0 mm
08:15 0.3 °C -4.9 °C 1011.7 hPa Calm   3.2 km/h 68% 0 mm
08:20 0.3 °C -5.1 °C 1011.7 hPa Calm   3.2 km/h 67% 0 mm
08:25 0.4 °C -4.8 °C 1011.7 hPa Calm   1.6 km/h 68% 0 mm
08:30 0.4 °C -4.9 °C 1011.4 hPa Calm   1.6 km/h 67% 0 mm
08:35 0.6 °C -5.1 °C 1011.4 hPa Calm   3.2 km/h 66% 0 mm
08:40 0.7 °C -4.7 °C 1011.4 hPa Calm   3.2 km/h 67% 0 mm
08:45 0.8 °C -5.2 °C 1011.4 hPa ENE 1.6 km/h 6.4 km/h 64% 0 mm
08:50 1 °C -5.3 °C 1011.4 hPa ENE 1.6 km/h 6.4 km/h 63% 0 mm
08:55 1.2 °C -4.9 °C 1011.4 hPa ENE 1.6 km/h 4.8 km/h 64% 0 mm
09:00 1.3 °C -5.4 °C 1011.4 hPa Calm   6.4 km/h 61% 0 mm
09:05 1.4 °C -5.6 °C 1011.4 hPa Calm   6.4 km/h 60% 0 mm
09:10 1.5 °C -5.7 °C 1011.4 hPa ENE 3.2 km/h 8 km/h 59% 0 mm
09:15 1.6 °C -5.4 °C 1011.4 hPa ENE 3.2 km/h 8 km/h 60% 0 mm
09:20 1.7 °C -5.3 °C 1011.4 hPa ENE 3.2 km/h 6.4 km/h 60% 0 mm
09:25 1.8 °C -5.1 °C 1011.4 hPa ENE 1.6 km/h 6.4 km/h 60% 0 mm
09:30 1.9 °C -5.2 °C 1011.4 hPa ENE 3.2 km/h 8 km/h 59% 0 mm
09:35 2 °C -5.4 °C 1011.4 hPa Calm   8 km/h 58% 0 mm
09:45 2.3 °C -5.2 °C 1011.4 hPa ENE 3.2 km/h 6.4 km/h 58% 0 mm
09:50 2.4 °C -5.1 °C 1011.4 hPa Calm   6.4 km/h 58% 0 mm
09:55 2.5 °C -5.2 °C 1011.4 hPa Calm   6.4 km/h 57% 0 mm
10:05 2.8 °C -4.8 °C 1011.4 hPa Calm   6.4 km/h 57% 0 mm
10:10 2.9 °C -5.1 °C 1011.4 hPa ENE 1.6 km/h 6.4 km/h 56% 0 mm
10:15 3 °C -4.4 °C 1011.4 hPa ENE 3.2 km/h 8 km/h 58% 0 mm
10:20 3.2 °C -4.9 °C 1011.4 hPa ENE 3.2 km/h 8 km/h 55% 0 mm
10:25 3.4 °C -5 °C 1011.4 hPa ENE 1.6 km/h 4.8 km/h 54% 0 mm
10:30 3.7 °C -4.7 °C 1011.4 hPa Calm   4.8 km/h 54% 0 mm
10:35 4 °C -4.7 °C 1011.4 hPa ENE 1.6 km/h 4.8 km/h 53% 0 mm
10:40 4.2 °C -5.1 °C 1011.4 hPa ENE 1.6 km/h 4.8 km/h 51% 0 mm
10:45 4.3 °C -4.7 °C 1011.4 hPa Calm   4.8 km/h 52% 0 mm
10:50 4.5 °C -4.8 °C 1011.4 hPa ENE 1.6 km/h 6.4 km/h 51% 0 mm
10:55 4.5 °C -5 °C 1011.4 hPa ENE 4.8 km/h 6.4 km/h 50% 0 mm
11:00 4.6 °C -4.9 °C 1011.4 hPa Calm   6.4 km/h 50% 0 mm
11:05 4.9 °C -4.9 °C 1011.4 hPa Calm   4.8 km/h 49% 0 mm
11:10 5.2 °C -4.6 °C 1011.4 hPa ENE 1.6 km/h 4.8 km/h 49% 0 mm
11:15 5.4 °C -4.7 °C 1011.4 hPa ENE 1.6 km/h 8 km/h 48% 0 mm
11:20 5.5 °C -4.9 °C 1011.4 hPa ENE 3.2 km/h 8 km/h 47% 0 mm
11:25 5.5 °C -5.2 °C 1011.4 hPa Calm   6.4 km/h 46% 0 mm
11:30 5.4 °C -5 °C 1011.4 hPa Calm   6.4 km/h 47% 0 mm
11:35 5.7 °C -5 °C 1011.1 hPa Calm   4.8 km/h 46% 0 mm
11:40 6.1 °C -5 °C 1011.1 hPa Calm   4.8 km/h 45% 0 mm
11:45 6 °C -5.1 °C 1011.1 hPa Calm   6.4 km/h 45% 0 mm
11:50 6.2 °C -4.9 °C 1011.1 hPa ENE 1.6 km/h 6.4 km/h 45% 0 mm
11:55 6.4 °C -4.9 °C 1011.1 hPa Calm   4.8 km/h 44% 0 mm
12:00 6.8 °C -4.6 °C 1010.7 hPa Calm   3.2 km/h 44% 0 mm
12:05 7.2 °C -4.8 °C 1010.7 hPa ENE 3.2 km/h 4.8 km/h 42% 0 mm
12:10 7.4 °C -4.7 °C 1010.7 hPa Calm   4.8 km/h 42% 0 mm
12:15 7.5 °C -4.6 °C 1010.7 hPa Calm   4.8 km/h 42% 0 mm
12:20 7.8 °C -4.3 °C 1010.7 hPa Calm   4.8 km/h 42% 0 mm
12:25 8.1 °C -4.4 °C 1010.4 hPa ENE 1.6 km/h 6.4 km/h 41% 0 mm
12:30 7.9 °C -4.8 °C 1010.4 hPa South 3.2 km/h 16.1 km/h 40% 0 mm
12:35 7.8 °C -4.6 °C 1010.4 hPa SSW 4.8 km/h 16.1 km/h 41% 0 mm
12:40 8.2 °C -4.9 °C 1010.4 hPa SSW 3.2 km/h 14.5 km/h 39% 0 mm
12:45 8.2 °C -4.9 °C 1010 hPa SSW 9.7 km/h 16.1 km/h 39% 0 mm
12:50 8.1 °C -5.4 °C 1010 hPa SSW 4.8 km/h 16.1 km/h 38% 0 mm
12:55 8.1 °C -4.7 °C 1010 hPa SSW 3.2 km/h 11.3 km/h 40% 0 mm
13:00 8.3 °C -4.9 °C 1010 hPa SSW 3.2 km/h 11.3 km/h 39% 0 mm
13:05 8.3 °C -5.2 °C 1010 hPa SSW 6.4 km/h 12.9 km/h 38% 0 mm
13:10 8.1 °C -5.4 °C 1010 hPa SE 1.6 km/h 14.5 km/h 38% 0 mm
13:15 8.2 °C -5.7 °C 1010 hPa South 1.6 km/h 14.5 km/h 37% 0 mm
13:20 8.4 °C -5.1 °C 1009.7 hPa Calm   9.7 km/h 38% 0 mm
13:25 8.3 °C -5.5 °C 1009.7 hPa Calm   6.4 km/h 37% 0 mm
13:30 8.6 °C -4.9 °C 1010 hPa SSE 1.6 km/h 8 km/h 38% 0 mm
13:35 8.7 °C -5.2 °C 1009.7 hPa South 4.8 km/h 8 km/h 37% 0 mm
13:40 8.7 °C -5.2 °C 1009.7 hPa WSW 1.6 km/h 9.7 km/h 37% 0 mm
13:45 9 °C -4.2 °C 1009.7 hPa WSW 1.6 km/h 9.7 km/h 39% 0 mm
13:50 8.9 °C -4.3 °C 1009.4 hPa SSW 1.6 km/h 8 km/h 39% 0 mm
13:55 8.8 °C -4.8 °C 1009.4 hPa Calm   8 km/h 38% 0 mm
14:05 8.6 °C -5.7 °C 1009.4 hPa South 1.6 km/h 11.3 km/h 36% 0 mm
14:10 8.7 °C -5.9 °C 1009.4 hPa Calm   8 km/h 35% 0 mm
14:15 8.7 °C -5.6 °C 1009 hPa SSE 3.2 km/h 6.4 km/h 36% 0 mm
14:20 8.7 °C -5.9 °C 1009 hPa SSE 3.2 km/h 11.3 km/h 35% 0 mm
14:25 8.6 °C -6 °C 1009 hPa SSW 3.2 km/h 14.5 km/h 35% 0 mm
14:30 8.6 °C -5.6 °C 1009 hPa SSW 1.6 km/h 14.5 km/h 36% 0 mm
14:35 8.7 °C -5.2 °C 1009 hPa SSW 8 km/h 12.9 km/h 37% 0 mm
14:40 8.5 °C -5 °C 1009 hPa SW 4.8 km/h 12.9 km/h 38% 0 mm
14:45 8.4 °C -5.1 °C 1009 hPa SW 6.4 km/h 12.9 km/h 38% 0 mm
14:50 8.4 °C -6.2 °C 1009 hPa South 4.8 km/h 12.9 km/h 35% 0 mm
14:55 8.5 °C -5 °C 1008.7 hPa South 6.4 km/h 14.5 km/h 38% 0 mm
15:00 8.3 °C -5.5 °C 1008.7 hPa South 8 km/h 14.5 km/h 37% 0 mm
15:05 8.2 °C -5.7 °C 1008.7 hPa South 4.8 km/h 11.3 km/h 37% 0 mm
15:10 8.1 °C -5.1 °C 1008.7 hPa SSW 11.3 km/h 20.9 km/h 39% 0 mm
15:15 7.8 °C -5.3 °C 1008.7 hPa South 6.4 km/h 20.9 km/h 39% 0 mm
15:20 7.8 °C -4.7 °C 1008.7 hPa SSW 12.9 km/h 22.5 km/h 41% 0 mm
15:25 7.7 °C -4.4 °C 1008.4 hPa SW 1.6 km/h 22.5 km/h 42% 0 mm
15:30 7.8 °C -4.6 °C 1008.4 hPa Calm   14.5 km/h 41% 0 mm
15:35 7.8 °C -4.6 °C 1008.4 hPa SSE 8 km/h 16.1 km/h 41% 0 mm
15:40 7.7 °C -4.1 °C 1008.4 hPa SSW 8 km/h 16.1 km/h 43% 0 mm
15:45 7.6 °C -4.6 °C 1008.4 hPa SSW 4.8 km/h 14.5 km/h 42% 0 mm
15:50 7.6 °C -4.2 °C 1008.4 hPa Calm   9.7 km/h 43% 0 mm
15:55 7.7 °C -4.1 °C 1008.4 hPa SSW 1.6 km/h 4.8 km/h 43% 0 mm
16:00 7.7 °C -4.1 °C 1008.4 hPa SSW 6.4 km/h 12.9 km/h 43% 0 mm
16:05 7.5 °C -3.7 °C 1008.4 hPa South 8 km/h 16.1 km/h 45% 0 mm
16:10 7.3 °C -3.9 °C 1008 hPa SW 9.7 km/h 16.1 km/h 45% 0 mm
16:15 7.2 °C -3.6 °C 1008 hPa SSE 3.2 km/h 12.9 km/h 46% 0 mm
16:20 7.2 °C -3.6 °C 1008 hPa South 1.6 km/h 14.5 km/h 46% 0 mm
16:25 7.2 °C -3.1 °C 1008.4 hPa ESE 3.2 km/h 14.5 km/h 48% 0 mm
16:30 7.3 °C -3.6 °C 1008 hPa East 4.8 km/h 12.9 km/h 46% 0 mm
16:35 7.3 °C -3.2 °C 1008 hPa Calm   9.7 km/h 47% 0 mm
16:40 7.3 °C -3.6 °C 1008 hPa NE 4.8 km/h 9.7 km/h 46% 0 mm
16:45 7.4 °C -3.5 °C 1008 hPa NE 1.6 km/h 6.4 km/h 46% 0 mm
16:50 7.2 °C -3.1 °C 1008 hPa Calm   6.4 km/h 48% 0 mm
16:55 7.1 °C -3.4 °C 1008 hPa ENE 1.6 km/h 4.8 km/h 47% 0 mm
17:00 7.1 °C -3.4 °C 1008 hPa Calm   4.8 km/h 47% 0 mm
17:05 7.1 °C -3.5 °C 1008 hPa Calm   11.3 km/h 47% 0 mm
17:10 7.1 °C -3.8 °C 1008 hPa South 6.4 km/h 11.3 km/h 46% 0 mm
17:15 6.9 °C -3.9 °C 1008 hPa South 6.4 km/h 14.5 km/h 46% 0 mm
17:20 6.9 °C -3.9 °C 1008 hPa South 6.4 km/h 14.5 km/h 46% 0 mm
17:25 6.9 °C -3.9 °C 1008 hPa SSW 3.2 km/h 14.5 km/h 46% 0 mm
17:30 6.9 °C -3.1 °C 1008 hPa SSW 1.6 km/h 14.5 km/h 49% 0 mm
17:35 6.8 °C -3.8 °C 1008 hPa SSW 1.6 km/h 6.4 km/h 47% 0 mm
17:40 6.7 °C -3.8 °C 1008 hPa South 4.8 km/h 11.3 km/h 47% 0 mm
17:45 6.7 °C -3.6 °C 1008 hPa South 3.2 km/h 11.3 km/h 48% 0 mm
17:50 6.5 °C -3.7 °C 1007.7 hPa South 6.4 km/h 9.7 km/h 48% 0 mm
17:55 6.4 °C -3.2 °C 1007.7 hPa South 4.8 km/h 12.9 km/h 50% 0 mm
18:00 6.3 °C -3.1 °C 1007.7 hPa SSW 3.2 km/h 12.9 km/h 51% 0 mm
18:05 6.2 °C -2.9 °C 1008 hPa SSW 4.8 km/h 11.3 km/h 52% 0 mm
18:10 6.1 °C -2.8 °C 1007.7 hPa South 3.2 km/h 17.7 km/h 53% 0 mm
18:15 5.9 °C -2.7 °C 1007.7 hPa Calm   17.7 km/h 54% 0 mm
18:20 5.8 °C -2.8 °C 1007.7 hPa South 4.8 km/h 8 km/h 54% 0 mm
18:25 5.8 °C -2.8 °C 1007.7 hPa Calm   9.7 km/h 54% 0 mm
18:30 5.8 °C -2.6 °C 1007.7 hPa Calm   9.7 km/h 55% 0 mm
18:40 5.4 °C -2.9 °C 1007.7 hPa Calm   8 km/h 55% 0 mm
18:45 5.3 °C -2.3 °C 1007.7 hPa Calm   8 km/h 58% 0 mm
18:50 5.1 °C -2.5 °C 1007.7 hPa South 3.2 km/h 4.8 km/h 58% 0 mm
18:55 4.8 °C -2.6 °C 1007.7 hPa Calm   4.8 km/h 59% 0 mm
19:00 4.6 °C -2.8 °C 1007.7 hPa Calm   4.8 km/h 59% 0 mm
19:05 4.5 °C -3.1 °C 1007.7 hPa South 1.6 km/h 4.8 km/h 58% 0 mm
19:10 4.5 °C -3.1 °C 1007.3 hPa Calm   4.8 km/h 58% 0 mm
19:15 4.3 °C -2.6 °C 1007.3 hPa Calm   4.8 km/h 61% 0 mm
19:20 4.3 °C -2.8 °C 1007.3 hPa Calm   3.2 km/h 60% 0 mm
19:25 4.4 °C -3.2 °C 1007.3 hPa Calm   3.2 km/h 58% 0 mm
19:30 4.4 °C -2.9 °C 1007.3 hPa Calm   1.6 km/h 59% 0 mm
19:35 4.3 °C -3 °C 1007 hPa Calm   1.6 km/h 59% 0 mm
19:40 4.2 °C -3.1 °C 1007 hPa Calm   3.2 km/h 59% 0 mm
19:45 4.2 °C -3.1 °C 1007 hPa South 1.6 km/h 4.8 km/h 59% 0 mm
19:50 4.2 °C -2.6 °C 1007 hPa South 1.6 km/h 6.4 km/h 61% 0 mm
19:55 4.1 °C -2.7 °C 1007.3 hPa South 1.6 km/h 6.4 km/h 61% 0 mm
20:00 4.1 °C -2.7 °C 1007.3 hPa South 3.2 km/h 6.4 km/h 61% 0 mm
20:05 4.1 °C -2.3 °C 1007.3 hPa Calm   6.4 km/h 63% 0 mm
20:10 4.1 °C -3 °C 1007.3 hPa Calm   3.2 km/h 60% 0 mm
20:15 3.9 °C -2.9 °C 1007.3 hPa Calm   3.2 km/h 61% 0 mm
20:20 3.9 °C -2.9 °C 1007.3 hPa Calm   3.2 km/h 61% 0 mm
20:25 3.9 °C -2.9 °C 1007.3 hPa Calm   3.2 km/h 61% 0 mm
20:30 3.9 °C -2.9 °C 1007.3 hPa Calm   3.2 km/h 61% 0 mm
20:35 3.9 °C -2.7 °C 1007.3 hPa Calm   3.2 km/h 62% 0 mm
20:40 3.8 °C -2.8 °C 1007.3 hPa South 1.6 km/h 4.8 km/h 62% 0 mm
20:45 3.9 °C -2.7 °C 1007.3 hPa Calm   4.8 km/h 62% 0 mm
20:50 3.8 °C -2.8 °C 1007.3 hPa Calm   4.8 km/h 62% 0 mm
20:55 3.8 °C -2.8 °C 1007.3 hPa Calm   6.4 km/h 62% 0 mm
21:00 3.8 °C -2.4 °C 1007.3 hPa South 1.6 km/h 6.4 km/h 64% 0 mm
21:05 3.8 °C -2.6 °C 1007.3 hPa Calm   4.8 km/h 63% 0 mm
21:10 3.8 °C -2.6 °C 1007.3 hPa Calm   4.8 km/h 63% 0 mm
21:15 3.8 °C -2.4 °C 1007.3 hPa Calm   4.8 km/h 64% 0 mm
21:20 3.8 °C -2.6 °C 1007.3 hPa Calm   6.4 km/h 63% 0 mm
21:25 3.8 °C -2.3 °C 1007.3 hPa Calm   6.4 km/h 64% 0 mm
21:30 3.7 °C -2.4 °C 1007.3 hPa Calm   11.3 km/h 64% 0 mm
21:35 3.7 °C -2.1 °C 1007.3 hPa South 1.6 km/h 11.3 km/h 66% 0 mm
21:45 3.7 °C -2.2 °C 1007.3 hPa Calm   4.8 km/h 65% 0 mm
21:50 3.7 °C -2.3 °C 1007.3 hPa Calm   3.2 km/h 65% 0 mm
21:55 3.7 °C -2.3 °C 1007.3 hPa South 4.8 km/h 8 km/h 65% 0 mm
22:00 3.8 °C -2.4 °C 1007.3 hPa South 1.6 km/h 8 km/h 64% 0 mm
22:05 3.8 °C -2.4 °C 1007.3 hPa South 1.6 km/h 8 km/h 64% 0 mm
22:10 3.7 °C -2.3 °C 1007.3 hPa Calm   8 km/h 65% 0 mm
22:15 3.5 °C -2.7 °C 1007 hPa Calm   4.8 km/h 64% 0 mm
22:20 3.3 °C -2.4 °C 1007 hPa South 1.6 km/h 6.4 km/h 66% 0 mm
22:25 3.4 °C -2.3 °C 1007 hPa Calm   6.4 km/h 66% 0 mm
22:30 3.3 °C -2.4 °C 1007 hPa Calm   4.8 km/h 66% 0 mm
22:35 3.5 °C -2.4 °C 1007 hPa South 1.6 km/h 4.8 km/h 65% 0 mm
22:45 3.6 °C -2.8 °C 1007 hPa SSW 4.8 km/h 9.7 km/h 63% 0 mm
22:50 3.8 °C -2.8 °C 1007 hPa SSW 4.8 km/h 9.7 km/h 62% 0 mm
22:55 3.9 °C -2.9 °C 1006.7 hPa SSW 3.2 km/h 9.7 km/h 61% 0 mm
23:00 4 °C -2.8 °C 1006.7 hPa SSW 4.8 km/h 9.7 km/h 61% 0 mm
23:05 4 °C -3.1 °C 1006.7 hPa SSW 4.8 km/h 9.7 km/h 60% 0 mm
23:10 4 °C -3.1 °C 1006.7 hPa SSW 1.6 km/h 9.7 km/h 60% 0 mm
23:15 3.9 °C -3.1 °C 1006.7 hPa Calm   8 km/h 60% 0 mm
23:20 3.7 °C -2.9 °C 1006.7 hPa Calm   6.4 km/h 62% 0 mm
23:25 3.7 °C -3.1 °C 1006.3 hPa SSW 3.2 km/h 9.7 km/h 61% 0 mm
23:30 3.7 °C -3.1 °C 1006.3 hPa South 3.2 km/h 9.7 km/h 61% 0 mm
23:35 3.7 °C -3.1 °C 1006.3 hPa SSW 3.2 km/h 9.7 km/h 61% 0 mm
23:40 3.7 °C -3.4 °C 1006.3 hPa SSW 3.2 km/h 9.7 km/h 60% 0 mm
23:45 3.6 °C -3.2 °C 1006.3 hPa Calm   9.7 km/h 61% 0 mm
23:50 3.6 °C -3.5 °C 1006.3 hPa SSW 3.2 km/h 8 km/h 60% 0 mm
23:55 3.5 °C -3.3 °C 1006.3 hPa Calm   8 km/h 61% 0 mm
Westford Weather
Compliments of Weather Underground

 
 
Current Radar Loop:

Copyright © WestfordWeather.net 2007-2014. All rights reserved.